createdAt,value
2024-02-26T00:00:10.030Z,6.21
2024-02-26T00:02:39.231Z,6.26
2024-02-26T00:05:08.345Z,6.20
2024-02-26T00:07:36.519Z,6.17
2024-02-26T00:10:04.936Z,6.14
2024-02-26T00:12:32.908Z,6.21
2024-02-26T00:15:00.549Z,6.16
2024-02-26T00:17:28.088Z,6.11
2024-02-26T00:19:55.686Z,6.06
2024-02-26T00:22:24.142Z,6.12
2024-02-26T00:24:51.701Z,6.05
2024-02-26T00:27:19.292Z,6.02
2024-02-26T00:29:46.891Z,5.98
2024-02-26T00:32:14.435Z,6.01
2024-02-26T00:34:42.031Z,5.99
2024-02-26T00:37:09.626Z,5.97
2024-02-26T00:39:37.133Z,5.93
2024-02-26T00:42:05.102Z,5.95
2024-02-26T00:44:33.025Z,5.82
2024-02-26T00:47:00.589Z,5.70
2024-02-26T00:49:28.144Z,5.77
2024-02-26T00:51:55.660Z,5.74
2024-02-26T00:54:23.210Z,5.74
2024-02-26T00:56:50.817Z,5.61
2024-02-26T00:59:18.357Z,5.51
2024-02-26T01:01:45.946Z,5.56
2024-02-26T01:04:14.045Z,5.56
2024-02-26T01:06:41.786Z,5.73
2024-02-26T01:09:10.402Z,5.54
2024-02-26T01:11:38.352Z,5.73
2024-02-26T01:14:05.989Z,5.64
2024-02-26T01:16:34.475Z,5.66
2024-02-26T01:19:02.235Z,5.67
2024-02-26T01:21:31.153Z,5.57
2024-02-26T01:23:58.684Z,5.52
2024-02-26T01:26:26.229Z,5.58
2024-02-26T01:28:54.160Z,5.53
2024-02-26T01:31:21.779Z,5.65
2024-02-26T01:33:49.486Z,5.55
2024-02-26T01:36:17.308Z,5.48
2024-02-26T01:38:44.980Z,5.53
2024-02-26T01:41:12.635Z,5.63
2024-02-26T01:43:40.189Z,5.56
2024-02-26T01:46:09.804Z,5.53
2024-02-26T01:48:37.556Z,5.47
2024-02-26T01:51:05.560Z,5.44
2024-02-26T01:53:33.491Z,5.59
2024-02-26T01:56:01.144Z,5.59
2024-02-26T01:58:29.013Z,5.54
2024-02-26T02:00:56.715Z,5.55
2024-02-26T02:03:25.572Z,5.59
2024-02-26T02:05:53.306Z,5.63
2024-02-26T02:08:21.004Z,5.81
2024-02-26T02:10:50.219Z,5.60
2024-02-26T02:13:18.216Z,5.74
2024-02-26T02:15:45.816Z,5.81
2024-02-26T02:18:13.556Z,5.71
2024-02-26T02:20:41.204Z,5.69
2024-02-26T02:23:08.776Z,5.82
2024-02-26T02:25:36.315Z,5.76
2024-02-26T02:28:04.100Z,5.65
2024-02-26T02:30:34.396Z,5.57
2024-02-26T02:33:02.340Z,5.48
2024-02-26T02:35:30.088Z,5.74
2024-02-26T02:37:59.165Z,5.57
2024-02-26T02:40:26.771Z,5.65
2024-02-26T02:42:54.312Z,5.67
2024-02-26T02:45:21.979Z,5.79
2024-02-26T02:47:49.579Z,5.80
2024-02-26T02:50:17.368Z,5.56
2024-02-26T02:52:44.956Z,5.81
2024-02-26T02:55:12.944Z,5.85
2024-02-26T02:57:42.353Z,5.67
2024-02-26T03:00:11.838Z,5.80
2024-02-26T03:02:39.544Z,5.72
2024-02-26T03:05:07.622Z,5.56
2024-02-26T03:07:35.194Z,5.70
2024-02-26T03:10:02.848Z,5.63
2024-02-26T03:12:30.841Z,5.46
2024-02-26T03:14:58.597Z,5.52
2024-02-26T03:17:26.441Z,5.61
2024-02-26T03:19:55.331Z,5.53
2024-02-26T03:22:23.136Z,5.73
2024-02-26T03:24:50.712Z,5.59
2024-02-26T03:27:18.372Z,5.79
2024-02-26T03:29:46.070Z,5.59
2024-02-26T03:32:13.708Z,5.62
2024-02-26T03:34:41.593Z,5.52
2024-02-26T03:37:11.791Z,5.52
2024-02-26T03:39:40.030Z,5.55
2024-02-26T03:42:07.880Z,5.51
2024-02-26T03:44:35.478Z,5.35
2024-02-26T03:47:02.985Z,5.52
2024-02-26T03:49:30.598Z,5.50
2024-02-26T03:51:58.303Z,5.49
2024-02-26T03:54:25.972Z,5.47
2024-02-26T03:56:53.593Z,5.42
2024-02-26T03:59:23.068Z,5.32
2024-02-26T04:01:50.609Z,5.51
2024-02-26T04:04:18.232Z,5.42
2024-02-26T04:06:49.281Z,5.23
2024-02-26T04:09:17.054Z,5.46
2024-02-26T04:11:45.410Z,5.33
2024-02-26T04:14:13.726Z,5.47
2024-02-26T04:16:41.394Z,5.46
2024-02-26T04:19:09.091Z,5.44
2024-02-26T04:21:37.241Z,5.56
2024-02-26T04:24:05.056Z,5.39
2024-02-26T04:26:32.904Z,5.41
2024-02-26T04:29:00.433Z,5.48
2024-02-26T04:31:28.600Z,5.48
2024-02-26T04:33:56.403Z,5.34
2024-02-26T04:36:24.468Z,5.40
2024-02-26T04:38:52.147Z,5.23
2024-02-26T04:41:19.698Z,5.23
2024-02-26T04:43:47.223Z,5.34
2024-02-26T04:46:14.743Z,5.26
2024-02-26T04:48:43.255Z,5.22
2024-02-26T04:51:11.062Z,5.10
2024-02-26T04:53:38.651Z,5.12
2024-02-26T04:56:06.667Z,5.26
2024-02-26T04:58:34.226Z,5.19
2024-02-26T05:01:01.918Z,5.18
2024-02-26T05:03:29.624Z,5.19
2024-02-26T05:05:59.254Z,5.30
2024-02-26T05:08:26.919Z,5.26
2024-02-26T05:10:54.533Z,5.18
2024-02-26T05:13:22.084Z,5.23
2024-02-26T05:15:50.836Z,5.36
2024-02-26T05:18:18.476Z,5.34
2024-02-26T05:20:46.109Z,5.29
2024-02-26T05:23:13.734Z,5.41
2024-02-26T05:25:42.406Z,5.27
2024-02-26T05:28:10.511Z,5.26
2024-02-26T05:30:41.033Z,5.06
2024-02-26T05:33:08.731Z,5.15
2024-02-26T05:35:36.285Z,5.12
2024-02-26T05:38:03.922Z,5.22
2024-02-26T05:40:32.118Z,5.25
2024-02-26T05:42:59.718Z,5.09
2024-02-26T05:45:27.306Z,5.14
2024-02-26T05:47:55.007Z,5.11
2024-02-26T05:50:22.662Z,5.16
2024-02-26T05:52:50.252Z,5.12
2024-02-26T05:55:17.940Z,5.28
2024-02-26T05:57:45.524Z,5.17
2024-02-26T06:00:15.554Z,5.09
2024-02-26T06:02:43.606Z,5.16
2024-02-26T06:05:11.341Z,5.15
2024-02-26T06:07:38.822Z,5.21
2024-02-26T06:10:07.684Z,5.21
2024-02-26T06:12:37.962Z,5.30
2024-02-26T06:15:05.963Z,5.13
2024-02-26T06:17:33.680Z,5.16
2024-02-26T06:20:01.929Z,5.04
2024-02-26T06:22:29.832Z,5.14
2024-02-26T06:24:57.391Z,5.08
2024-02-26T06:27:25.583Z,5.20
2024-02-26T06:29:54.998Z,5.28
2024-02-26T06:32:25.437Z,5.26
2024-02-26T06:34:53.156Z,5.20
2024-02-26T06:37:20.920Z,5.11
2024-02-26T06:39:48.702Z,5.06
2024-02-26T06:42:16.314Z,5.20
2024-02-26T06:44:43.935Z,5.13
2024-02-26T06:47:12.750Z,4.98
2024-02-26T06:49:40.587Z,5.13
2024-02-26T06:52:08.467Z,5.06
2024-02-26T06:54:35.976Z,5.00
2024-02-26T06:57:04.297Z,5.09
2024-02-26T06:59:31.926Z,5.04
2024-02-26T07:01:59.529Z,5.12
2024-02-26T07:04:27.207Z,5.17
2024-02-26T07:06:54.799Z,5.32
2024-02-26T07:09:22.610Z,5.27
2024-02-26T07:11:50.263Z,5.09
2024-02-26T07:14:17.870Z,5.07
2024-02-26T07:16:45.508Z,5.02
2024-02-26T07:19:13.781Z,5.12
2024-02-26T07:21:41.895Z,5.19
2024-02-26T07:24:09.658Z,5.15
2024-02-26T07:26:37.333Z,5.18
2024-02-26T07:29:05.328Z,5.10
2024-02-26T07:31:32.941Z,5.03
2024-02-26T07:34:00.870Z,5.14
2024-02-26T07:36:28.661Z,5.14
2024-02-26T07:38:56.291Z,5.31
2024-02-26T07:41:23.893Z,5.40
2024-02-26T07:43:51.445Z,5.39
2024-02-26T07:46:19.233Z,5.27
2024-02-26T07:48:47.181Z,5.18
2024-02-26T07:51:15.972Z,5.26
2024-02-26T07:53:43.586Z,5.21
2024-02-26T07:56:11.683Z,5.17
2024-02-26T07:58:39.234Z,5.17
2024-02-26T08:01:06.836Z,5.22
2024-02-26T08:03:34.463Z,5.36
2024-02-26T08:06:02.197Z,5.17
2024-02-26T08:08:29.808Z,5.08
2024-02-26T08:10:57.424Z,5.14
2024-02-26T08:13:25.169Z,5.41
2024-02-26T08:15:52.773Z,5.20
2024-02-26T08:18:21.318Z,5.20
2024-02-26T08:20:50.114Z,5.28
2024-02-26T08:23:18.108Z,5.16
2024-02-26T08:25:45.757Z,5.15
2024-02-26T08:28:14.419Z,5.17
2024-02-26T08:30:42.014Z,5.19
2024-02-26T08:33:10.106Z,5.13
2024-02-26T08:35:38.389Z,5.19
2024-02-26T08:38:06.152Z,5.33
2024-02-26T08:40:33.729Z,5.15
2024-02-26T08:43:01.260Z,5.11
2024-02-26T08:45:31.325Z,5.31
2024-02-26T08:47:59.742Z,5.23
2024-02-26T08:50:27.473Z,5.34
2024-02-26T08:52:55.104Z,5.14
2024-02-26T08:55:22.678Z,5.29
2024-02-26T08:57:50.353Z,5.20
2024-02-26T09:00:18.865Z,5.11
2024-02-26T09:02:46.571Z,5.25
2024-02-26T09:05:14.253Z,5.31
2024-02-26T09:07:41.985Z,5.36
2024-02-26T09:10:11.598Z,5.37
2024-02-26T09:12:40.819Z,5.17
2024-02-26T09:15:09.358Z,5.29
2024-02-26T09:17:37.484Z,5.30
2024-02-26T09:20:06.950Z,5.47
2024-02-26T09:22:36.121Z,5.46
2024-02-26T09:25:04.690Z,5.42
2024-02-26T09:27:32.748Z,5.38
2024-02-26T09:30:00.704Z,5.17
2024-02-26T09:32:28.911Z,5.17
2024-02-26T09:34:56.563Z,5.23
2024-02-26T09:37:24.142Z,5.22
2024-02-26T09:39:51.844Z,5.12
2024-02-26T09:42:22.249Z,5.27
2024-02-26T09:44:56.524Z,5.16
2024-02-26T09:47:25.917Z,5.33
2024-02-26T09:49:55.475Z,5.28
2024-02-26T09:52:23.828Z,5.27
2024-02-26T09:54:51.572Z,5.23
2024-02-26T09:57:19.328Z,5.17
2024-02-26T09:59:51.066Z,5.25
2024-02-26T10:02:21.798Z,5.00
2024-02-26T10:04:52.572Z,4.98
2024-02-26T10:07:20.800Z,5.32
2024-02-26T10:09:48.647Z,5.15
2024-02-26T10:12:18.601Z,5.19
2024-02-26T10:14:46.412Z,5.10
2024-02-26T10:17:14.177Z,5.01
2024-02-26T10:19:41.973Z,5.10
2024-02-26T10:22:09.720Z,5.14
2024-02-26T10:24:37.322Z,5.20
2024-02-26T10:27:05.231Z,5.10
2024-02-26T10:29:33.470Z,5.34
2024-02-26T10:32:01.179Z,5.36
2024-02-26T10:34:30.413Z,5.41
2024-02-26T10:36:58.179Z,5.29
2024-02-26T10:39:25.803Z,5.22
2024-02-26T10:41:54.567Z,5.36
2024-02-26T10:44:22.153Z,5.37
2024-02-26T10:46:51.180Z,5.23
2024-02-26T10:49:21.554Z,5.50
2024-02-26T10:51:58.846Z,5.32
2024-02-26T10:54:29.860Z,5.32
2024-02-26T10:57:02.245Z,5.28
2024-02-26T10:59:30.102Z,5.32
2024-02-26T11:01:58.582Z,5.48
2024-02-26T11:04:28.918Z,5.35
2024-02-26T11:07:06.063Z,5.58
2024-02-26T11:09:35.021Z,5.58
2024-02-26T11:12:05.955Z,5.41
2024-02-26T11:14:33.778Z,5.52
2024-02-26T11:17:02.431Z,5.58
2024-02-26T11:19:33.979Z,5.73
2024-02-26T11:22:12.352Z,5.62
2024-02-26T11:24:46.796Z,5.68
2024-02-26T11:27:14.811Z,5.56
2024-02-26T11:29:46.783Z,5.53
2024-02-26T11:32:15.420Z,5.62
2024-02-26T11:34:45.087Z,5.60
2024-02-26T11:37:14.323Z,5.50
2024-02-26T11:39:46.902Z,5.56
2024-02-26T11:42:18.220Z,5.68
2024-02-26T11:44:46.126Z,5.80
2024-02-26T11:47:24.521Z,5.64
2024-02-26T11:49:52.344Z,5.74
2024-02-26T11:52:20.113Z,5.87
2024-02-26T11:54:53.853Z,5.82
2024-02-26T11:57:24.354Z,5.77
2024-02-26T11:59:52.551Z,5.75
2024-02-26T12:02:45.064Z,5.85
2024-02-26T12:05:25.133Z,5.86
2024-02-26T12:07:58.271Z,5.81
2024-02-26T12:10:40.223Z,5.95
2024-02-26T12:13:18.622Z,5.90
2024-02-26T12:16:08.222Z,5.99
2024-02-26T12:18:36.926Z,5.90
2024-02-26T12:21:07.957Z,5.87
2024-02-26T12:23:35.995Z,5.67
2024-02-26T12:26:06.750Z,5.83
2024-02-26T12:28:36.436Z,5.85
2024-02-26T12:31:04.147Z,5.94
2024-02-26T12:33:33.096Z,6.03
2024-02-26T12:36:01.330Z,5.69
2024-02-26T12:38:30.621Z,5.99
2024-02-26T12:40:58.372Z,5.86
2024-02-26T12:43:26.138Z,5.86
2024-02-26T12:45:53.917Z,5.97
2024-02-26T12:48:21.706Z,5.80
2024-02-26T12:50:49.780Z,6.06
2024-02-26T12:53:17.684Z,6.05
2024-02-26T12:55:45.872Z,5.97
2024-02-26T12:58:14.503Z,6.13
2024-02-26T13:00:42.372Z,5.98
2024-02-26T13:03:11.528Z,5.96
2024-02-26T13:05:39.799Z,6.04
2024-02-26T13:08:09.478Z,6.25
2024-02-26T13:10:38.176Z,6.13
2024-02-26T13:13:06.417Z,6.14
2024-02-26T13:15:34.226Z,6.15
2024-02-26T13:18:11.868Z,6.06
2024-02-26T13:20:41.277Z,6.12
2024-02-26T13:23:10.240Z,6.06
2024-02-26T13:25:42.625Z,6.03
2024-02-26T13:28:20.574Z,6.23
2024-02-26T13:30:58.791Z,6.20
2024-02-26T13:33:28.034Z,6.06
2024-02-26T13:35:57.746Z,6.29
2024-02-26T13:38:25.676Z,6.07
2024-02-26T13:40:53.576Z,6.09
2024-02-26T13:43:21.477Z,6.24
2024-02-26T13:45:49.747Z,6.12
2024-02-26T13:48:17.806Z,6.14
2024-02-26T13:50:46.738Z,6.15
2024-02-26T13:53:15.723Z,6.13
2024-02-26T13:55:45.176Z,6.04
2024-02-26T13:58:16.509Z,5.99
2024-02-26T14:00:44.697Z,6.01
2024-02-26T14:03:12.677Z,6.10
2024-02-26T14:05:40.651Z,6.17
2024-02-26T14:08:09.078Z,6.18
2024-02-26T14:10:37.372Z,6.28
2024-02-26T14:13:05.171Z,6.06
2024-02-26T14:15:35.089Z,6.07
2024-02-26T14:18:05.424Z,6.34
2024-02-26T14:20:33.128Z,6.14
2024-02-26T14:23:01.740Z,6.22
2024-02-26T14:25:31.419Z,6.32
2024-02-26T14:28:00.105Z,6.36
2024-02-26T14:30:28.628Z,6.16
2024-02-26T14:32:56.761Z,6.17
2024-02-26T14:35:24.606Z,6.28
2024-02-26T14:37:53.126Z,6.10
2024-02-26T14:40:20.821Z,6.11
2024-02-26T14:42:49.824Z,6.29
2024-02-26T14:45:17.814Z,6.36
2024-02-26T14:47:45.620Z,6.25
2024-02-26T14:50:13.547Z,6.26
2024-02-26T14:52:41.293Z,6.38
2024-02-26T14:55:09.012Z,6.31
2024-02-26T14:57:36.680Z,6.31
2024-02-26T15:00:06.632Z,6.38
2024-02-26T15:02:34.272Z,6.31
2024-02-26T15:05:01.867Z,6.52
2024-02-26T15:07:29.531Z,6.39
2024-02-26T15:10:00.724Z,6.56
2024-02-26T15:12:28.963Z,6.48
2024-02-26T15:14:57.845Z,6.30
2024-02-26T15:17:25.665Z,6.31
2024-02-26T15:19:53.308Z,6.27
2024-02-26T15:22:20.953Z,6.41
2024-02-26T15:24:48.677Z,6.29
2024-02-26T15:27:16.342Z,6.39
2024-02-26T15:29:43.879Z,6.42
2024-02-26T15:32:12.803Z,6.30
2024-02-26T15:34:40.522Z,6.23
2024-02-26T15:37:08.388Z,6.37
2024-02-26T15:39:37.565Z,6.25
2024-02-26T15:42:05.375Z,6.21
2024-02-26T15:44:32.906Z,6.37
2024-02-26T15:47:00.917Z,6.33
2024-02-26T15:49:28.521Z,6.39
2024-02-26T15:51:56.138Z,6.26
2024-02-26T15:54:23.707Z,6.27
2024-02-26T15:56:51.393Z,6.34
2024-02-26T15:59:20.645Z,6.32
2024-02-26T16:01:48.830Z,6.29
2024-02-26T16:04:16.551Z,6.28
2024-02-26T16:06:50.964Z,6.29
2024-02-26T16:09:18.538Z,6.12
2024-02-26T16:11:46.269Z,6.02
2024-02-26T16:14:40.601Z,6.06
2024-02-26T16:17:35.942Z,6.04
2024-02-26T16:20:06.288Z,6.04
2024-02-26T16:22:34.058Z,6.12
2024-02-26T16:25:01.639Z,5.85
2024-02-26T16:27:29.309Z,5.81
2024-02-26T16:29:57.429Z,5.88
2024-02-26T16:32:25.145Z,5.88
2024-02-26T16:34:53.082Z,5.85
2024-02-26T16:37:20.737Z,5.73
2024-02-26T16:39:48.306Z,5.61
2024-02-26T16:42:16.057Z,5.71
2024-02-26T16:44:43.820Z,5.65
2024-02-26T16:47:11.743Z,5.63
2024-02-26T16:49:39.509Z,5.67
2024-02-26T16:52:07.457Z,5.65
2024-02-26T16:54:35.072Z,5.58
2024-02-26T16:57:03.219Z,5.39
2024-02-26T16:59:31.159Z,5.47
2024-02-26T17:02:00.247Z,5.43
2024-02-26T17:04:28.414Z,5.30
2024-02-26T17:06:56.516Z,5.43
2024-02-26T17:09:24.687Z,5.44
2024-02-26T17:11:54.504Z,5.50
2024-02-26T17:14:23.087Z,5.26
2024-02-26T17:16:54.209Z,5.34
2024-02-26T17:19:21.928Z,5.25
2024-02-26T17:21:49.542Z,5.20
2024-02-26T17:24:17.166Z,5.21
2024-02-26T17:26:44.690Z,5.16
2024-02-26T17:29:12.557Z,5.10
2024-02-26T17:31:43.312Z,5.03
2024-02-26T17:34:12.294Z,4.98
2024-02-26T17:36:40.977Z,4.93
2024-02-26T17:39:08.640Z,5.03
2024-02-26T17:41:36.221Z,5.13
2024-02-26T17:44:03.908Z,5.02
2024-02-26T17:46:31.486Z,4.91
2024-02-26T17:48:59.255Z,4.85
2024-02-26T17:51:27.000Z,4.88
2024-02-26T17:53:55.103Z,4.97
2024-02-26T17:56:22.736Z,4.95
2024-02-26T17:58:50.630Z,4.89
2024-02-26T18:01:18.357Z,4.93
2024-02-26T18:03:46.135Z,4.87
2024-02-26T18:06:13.929Z,4.86
2024-02-26T18:08:41.586Z,4.76
2024-02-26T18:11:11.380Z,4.84
2024-02-26T18:13:43.808Z,4.71
2024-02-26T18:16:11.443Z,4.80
2024-02-26T18:18:39.909Z,4.78
2024-02-26T18:21:07.961Z,4.81
2024-02-26T18:23:36.076Z,4.81
2024-02-26T18:26:04.168Z,4.70
2024-02-26T18:28:32.345Z,4.80
2024-02-26T18:31:00.709Z,4.77
2024-02-26T18:33:30.363Z,4.64
2024-02-26T18:35:58.838Z,4.61
2024-02-26T18:38:27.725Z,4.77
2024-02-26T18:40:55.859Z,4.69
2024-02-26T18:43:23.941Z,4.60
2024-02-26T18:45:52.546Z,4.58
2024-02-26T18:48:22.188Z,4.74
2024-02-26T18:50:50.349Z,4.68
2024-02-26T18:53:19.610Z,4.61
2024-02-26T18:55:48.091Z,4.56
2024-02-26T18:58:16.156Z,4.54
2024-02-26T19:00:44.326Z,4.54
2024-02-26T19:03:12.380Z,4.51
2024-02-26T19:05:40.364Z,4.47
2024-02-26T19:08:09.674Z,4.54
2024-02-26T19:10:38.592Z,4.50
2024-02-26T19:13:09.688Z,4.50
2024-02-26T19:15:39.675Z,4.63
2024-02-26T19:18:08.035Z,4.70
2024-02-26T19:20:36.005Z,4.59
2024-02-26T19:23:04.384Z,4.57
2024-02-26T19:25:31.999Z,4.61
2024-02-26T19:27:59.643Z,4.71
2024-02-26T19:30:27.334Z,4.51
2024-02-26T19:32:55.041Z,4.60
2024-02-26T19:35:22.625Z,4.64
2024-02-26T19:37:50.256Z,4.61
2024-02-26T19:40:17.910Z,4.55
2024-02-26T19:42:45.476Z,4.62
2024-02-26T19:45:13.377Z,4.67
2024-02-26T19:47:41.426Z,4.71
2024-02-26T19:50:10.194Z,4.67
2024-02-26T19:52:37.845Z,4.64
2024-02-26T19:55:05.986Z,4.60
2024-02-26T19:57:34.912Z,4.64
2024-02-26T20:00:03.527Z,4.64
2024-02-26T20:02:31.158Z,4.62
2024-02-26T20:04:58.648Z,4.65
2024-02-26T20:07:26.191Z,4.69
2024-02-26T20:09:53.698Z,4.77
2024-02-26T20:12:21.343Z,4.63
2024-02-26T20:14:48.899Z,4.62
2024-02-26T20:17:17.195Z,4.62
2024-02-26T20:19:45.044Z,4.56
2024-02-26T20:22:14.646Z,4.51
2024-02-26T20:24:42.395Z,4.54
2024-02-26T20:27:12.083Z,4.55
2024-02-26T20:29:40.127Z,4.43
2024-02-26T20:32:08.233Z,4.39
2024-02-26T20:34:35.992Z,4.40
2024-02-26T20:37:03.863Z,4.42
2024-02-26T20:39:31.548Z,4.40
2024-02-26T20:41:59.221Z,4.38
2024-02-26T20:44:26.791Z,4.39
2024-02-26T20:46:57.025Z,4.32
2024-02-26T20:49:24.781Z,4.48
2024-02-26T20:51:52.428Z,4.38
2024-02-26T20:54:20.577Z,4.26
2024-02-26T20:56:50.770Z,4.29
2024-02-26T20:59:18.689Z,4.23
2024-02-26T21:01:46.427Z,4.31
2024-02-26T21:04:13.194Z,4.24
2024-02-26T21:06:40.913Z,4.32
2024-02-26T21:09:09.409Z,4.24
2024-02-26T21:11:37.473Z,4.28
2024-02-26T21:14:06.124Z,4.28
2024-02-26T21:16:33.733Z,4.32
2024-02-26T21:19:03.290Z,4.43
2024-02-26T21:21:31.749Z,4.38
2024-02-26T21:24:02.147Z,4.43
2024-02-26T21:26:31.294Z,4.29
2024-02-26T21:28:58.854Z,4.44
2024-02-26T21:31:26.470Z,4.38
2024-02-26T21:33:54.230Z,4.41
2024-02-26T21:36:22.359Z,4.38
2024-02-26T21:38:51.353Z,4.38
2024-02-26T21:41:20.597Z,4.39
2024-02-26T21:43:51.815Z,4.48
2024-02-26T21:46:20.539Z,4.50
2024-02-26T21:48:48.653Z,4.57
2024-02-26T21:51:16.524Z,4.46
2024-02-26T21:53:46.508Z,4.46
2024-02-26T21:56:15.671Z,4.62
2024-02-26T21:58:43.273Z,4.39
2024-02-26T22:01:10.879Z,4.64
2024-02-26T22:03:38.620Z,4.66
2024-02-26T22:06:07.283Z,4.55
2024-02-26T22:08:34.950Z,4.57
2024-02-26T22:11:03.647Z,4.47
2024-02-26T22:13:31.387Z,4.48
2024-02-26T22:15:59.150Z,4.49
2024-02-26T22:18:26.894Z,4.54
2024-02-26T22:20:54.633Z,4.48
2024-02-26T22:23:22.259Z,4.53
2024-02-26T22:25:50.210Z,4.54
2024-02-26T22:28:17.833Z,4.43
2024-02-26T22:30:45.533Z,4.39
2024-02-26T22:33:13.253Z,4.45
2024-02-26T22:35:40.996Z,4.41
2024-02-26T22:38:08.620Z,4.45
2024-02-26T22:40:36.167Z,4.38
2024-02-26T22:43:03.790Z,4.36
2024-02-26T22:45:31.336Z,4.45
2024-02-26T22:47:59.234Z,4.41
2024-02-26T22:50:26.925Z,4.40
2024-02-26T22:52:54.926Z,4.31
2024-02-26T22:55:24.777Z,4.39
2024-02-26T22:57:52.892Z,4.31
2024-02-26T23:00:32.436Z,4.31
2024-02-26T23:03:01.469Z,4.26
2024-02-26T23:05:30.047Z,4.19
2024-02-26T23:07:58.554Z,4.18
2024-02-26T23:10:26.812Z,4.18
2024-02-26T23:12:54.626Z,4.19
2024-02-26T23:15:22.411Z,4.18
2024-02-26T23:17:50.296Z,4.18
2024-02-26T23:20:18.225Z,4.09
2024-02-26T23:22:47.557Z,4.11
2024-02-26T23:25:16.822Z,4.07
2024-02-26T23:27:46.177Z,4.06
2024-02-26T23:30:14.945Z,4.08
2024-02-26T23:32:43.243Z,4.06
2024-02-26T23:35:11.563Z,4.00
2024-02-26T23:37:39.353Z,4.05
2024-02-26T23:40:08.158Z,4.05
2024-02-26T23:42:38.124Z,4.05
2024-02-26T23:45:08.664Z,3.94
2024-02-26T23:47:36.607Z,3.97
2024-02-26T23:50:05.269Z,4.04
2024-02-26T23:52:32.965Z,3.91
2024-02-26T23:55:00.629Z,3.95
2024-02-26T23:57:28.180Z,3.92
2024-02-26T23:59:55.893Z,3.93
